createdAt,value
2022-12-01T00:01:57.029Z,6.88
2022-12-01T00:04:58.944Z,6.95
2022-12-01T00:08:00.900Z,7.10
2022-12-01T00:11:08.339Z,7.45
2022-12-01T00:14:10.206Z,7.45
2022-12-01T00:17:12.042Z,8.15
2022-12-01T00:20:14.959Z,8.02
2022-12-01T00:26:20.334Z,8.38
2022-12-01T00:29:22.185Z,6.97
2022-12-01T00:32:24.850Z,8.10
2022-12-01T00:35:26.746Z,8.73
2022-12-01T00:38:29.094Z,8.85
2022-12-01T00:41:30.940Z,8.02
2022-12-01T00:44:32.809Z,9.23
2022-12-01T00:47:34.662Z,8.45
2022-12-01T00:50:36.628Z,8.82
2022-12-01T00:53:38.547Z,9.05
2022-12-01T00:56:40.449Z,8.73
2022-12-01T00:59:42.471Z,8.60
2022-12-01T01:02:44.665Z,9.63
2022-12-01T01:05:46.622Z,8.50
2022-12-01T01:08:48.532Z,10.10
2022-12-01T01:11:50.436Z,10.10
2022-12-01T01:14:52.286Z,9.63
2022-12-01T01:17:54.718Z,9.43
2022-12-01T01:21:01.927Z,9.57
2022-12-01T01:24:04.025Z,10.70
2022-12-01T01:27:05.941Z,9.38
2022-12-01T01:30:08.553Z,10.60
2022-12-01T01:33:10.409Z,9.65
2022-12-01T01:36:12.758Z,10.15
2022-12-01T01:39:17.080Z,10.70
2022-12-01T01:42:20.365Z,10.77
2022-12-01T01:45:24.739Z,10.32
2022-12-01T01:48:26.618Z,10.25
2022-12-01T01:51:38.798Z,11.20
2022-12-01T01:54:44.160Z,11.07
2022-12-01T01:57:46.722Z,10.63
2022-12-01T02:00:48.683Z,10.82
2022-12-01T02:03:53.492Z,10.75
2022-12-01T02:06:55.646Z,10.00
2022-12-01T02:09:57.802Z,9.02
2022-12-01T02:13:08.440Z,11.18
2022-12-01T02:16:18.563Z,10.40
2022-12-01T02:19:39.338Z,10.00
2022-12-01T02:23:07.057Z,10.25
2022-12-01T02:26:29.863Z,10.75
2022-12-01T02:30:02.454Z,11.57
2022-12-01T02:33:07.461Z,9.77
2022-12-01T02:36:18.471Z,10.75
2022-12-01T02:39:49.374Z,9.88
2022-12-01T02:43:18.550Z,10.57
2022-12-01T02:46:35.561Z,11.05
2022-12-01T02:49:43.744Z,10.57
2022-12-01T02:52:45.760Z,10.05
2022-12-01T02:55:52.215Z,10.18
2022-12-01T02:58:54.155Z,8.98
2022-12-01T03:02:33.683Z,9.35
2022-12-01T03:05:45.720Z,9.52
2022-12-01T03:09:25.003Z,10.18
2022-12-01T03:15:56.867Z,6.97
2022-12-01T03:19:28.848Z,8.50
2022-12-01T03:22:40.131Z,8.75
2022-12-01T03:25:47.065Z,7.32
2022-12-01T03:29:00.399Z,7.53
2022-12-01T03:32:20.563Z,7.68
2022-12-01T03:35:38.122Z,7.95
2022-12-01T03:38:43.998Z,7.65
2022-12-01T03:41:51.598Z,7.60
2022-12-01T03:44:56.756Z,8.10
2022-12-01T03:47:58.929Z,7.95
2022-12-01T03:51:19.119Z,7.57
2022-12-01T03:54:48.637Z,7.65
2022-12-01T03:58:17.148Z,9.07
2022-12-01T04:01:19.193Z,8.15
2022-12-01T04:04:21.200Z,9.02
2022-12-01T04:07:23.377Z,8.07
2022-12-01T04:10:25.280Z,9.00
2022-12-01T04:13:27.176Z,9.25
2022-12-01T04:16:29.057Z,7.70
2022-12-01T04:19:31.012Z,8.38
2022-12-01T04:22:33.689Z,9.52
2022-12-01T04:25:35.828Z,8.57
2022-12-01T04:28:37.746Z,8.07
2022-12-01T04:31:40.251Z,8.80
2022-12-01T04:34:42.358Z,8.38
2022-12-01T04:37:44.231Z,9.82
2022-12-01T04:40:46.117Z,8.30
2022-12-01T04:43:47.973Z,8.52
2022-12-01T04:46:52.037Z,8.10
2022-12-01T04:49:53.877Z,8.10
2022-12-01T04:52:55.747Z,8.25
2022-12-01T04:55:59.153Z,7.90
2022-12-01T04:59:03.553Z,8.50
2022-12-01T05:02:05.504Z,7.90
2022-12-01T05:05:07.776Z,8.15
2022-12-01T05:08:09.810Z,8.07
2022-12-01T05:11:13.322Z,8.60
2022-12-01T05:14:15.194Z,8.98
2022-12-01T05:17:17.130Z,7.85
2022-12-01T05:20:22.256Z,7.25
2022-12-01T05:23:29.382Z,8.05
2022-12-01T05:26:31.221Z,7.63
2022-12-01T05:29:33.276Z,7.85
2022-12-01T05:32:35.214Z,7.72
2022-12-01T05:35:37.179Z,7.43
2022-12-01T05:38:39.122Z,7.95
2022-12-01T05:41:41.179Z,7.20
2022-12-01T05:44:43.096Z,7.15
2022-12-01T05:47:44.928Z,8.20
2022-12-01T05:50:46.985Z,8.20
2022-12-01T05:53:49.615Z,7.82
2022-12-01T05:56:51.453Z,7.05
2022-12-01T05:59:53.305Z,7.50
2022-12-01T06:02:55.286Z,6.28
2022-12-01T06:05:59.392Z,7.60
2022-12-01T06:09:03.603Z,8.00
2022-12-01T06:12:05.664Z,7.40
2022-12-01T06:15:08.575Z,7.97
2022-12-01T06:18:10.557Z,8.50
2022-12-01T06:21:12.538Z,7.30
2022-12-01T06:24:14.553Z,7.25
2022-12-01T06:27:16.474Z,6.90
2022-12-01T06:30:18.356Z,6.30
2022-12-01T06:33:20.193Z,7.18
2022-12-01T06:36:22.103Z,7.28
2022-12-01T06:39:23.957Z,7.80
2022-12-01T06:42:28.809Z,7.75
2022-12-01T06:45:31.541Z,7.25
2022-12-01T06:48:33.601Z,7.50
2022-12-01T06:51:35.511Z,7.05
2022-12-01T06:54:37.512Z,7.82
2022-12-01T06:57:39.691Z,7.65
2022-12-01T07:00:41.648Z,6.95
2022-12-01T07:03:46.932Z,7.80
2022-12-01T07:06:48.859Z,8.70
2022-12-01T07:09:50.964Z,9.57
2022-12-01T07:12:53.027Z,9.23
2022-12-01T07:15:55.047Z,8.10
2022-12-01T07:18:57.021Z,8.38
2022-12-01T07:21:58.871Z,7.57
2022-12-01T07:25:00.740Z,8.38
2022-12-01T07:28:02.677Z,8.35
2022-12-01T07:31:08.872Z,7.80
2022-12-01T07:34:13.647Z,7.30
2022-12-01T07:37:15.566Z,7.75
2022-12-01T07:40:17.527Z,7.82
2022-12-01T07:43:19.425Z,8.13
2022-12-01T07:46:24.702Z,7.88
2022-12-01T07:49:26.767Z,6.80
2022-12-01T07:52:28.596Z,7.95
2022-12-01T07:55:30.515Z,7.15
2022-12-01T07:58:32.744Z,8.27
2022-12-01T08:01:34.633Z,7.47
2022-12-01T08:04:36.572Z,6.78
2022-12-01T08:07:38.463Z,8.02
2022-12-01T08:10:40.727Z,7.55
2022-12-01T08:13:43.325Z,7.43
2022-12-01T08:16:45.213Z,7.55
2022-12-01T08:19:47.251Z,7.95
2022-12-01T08:22:49.312Z,8.20
2022-12-01T08:25:51.321Z,6.90
2022-12-01T08:28:53.566Z,7.80
2022-12-01T08:31:58.396Z,7.88
2022-12-01T08:35:00.203Z,8.35
2022-12-01T08:38:02.142Z,8.90
2022-12-01T08:41:08.730Z,7.88
2022-12-01T08:44:11.136Z,8.25
2022-12-01T08:47:17.259Z,7.80
2022-12-01T08:50:20.659Z,7.13
2022-12-01T08:53:22.545Z,8.02
2022-12-01T08:56:26.390Z,7.70
2022-12-01T08:59:28.344Z,7.43
2022-12-01T09:02:30.228Z,8.07
2022-12-01T09:05:32.177Z,7.18
2022-12-01T09:08:36.992Z,6.75
2022-12-01T09:11:40.030Z,8.45
2022-12-01T09:14:43.753Z,7.13
2022-12-01T09:17:48.527Z,7.55
2022-12-01T09:20:50.547Z,7.47
2022-12-01T09:23:53.437Z,7.85
2022-12-01T09:26:57.120Z,7.43
2022-12-01T09:29:58.955Z,7.68
2022-12-01T09:33:00.824Z,7.22
2022-12-01T09:36:04.268Z,7.57
2022-12-01T09:39:08.184Z,7.03
2022-12-01T09:42:16.516Z,6.95
2022-12-01T09:45:32.556Z,7.35
2022-12-01T09:48:54.022Z,8.50
2022-12-01T09:51:55.988Z,9.05
2022-12-01T09:55:00.510Z,9.18
2022-12-01T09:58:04.941Z,8.88
2022-12-01T10:01:10.576Z,7.93
2022-12-01T10:04:16.519Z,8.05
2022-12-01T10:07:27.144Z,9.60
2022-12-01T10:10:37.760Z,7.80
2022-12-01T10:13:39.627Z,7.63
2022-12-01T10:17:03.061Z,8.48
2022-12-01T10:20:15.337Z,8.38
2022-12-01T10:23:37.411Z,7.63
2022-12-01T10:26:55.667Z,7.45
2022-12-01T10:30:09.977Z,7.38
2022-12-01T10:33:25.455Z,8.20
2022-12-01T10:36:28.814Z,7.55
2022-12-01T10:39:40.718Z,8.50
2022-12-01T10:42:52.087Z,8.38
2022-12-01T10:45:55.002Z,8.50
2022-12-01T10:52:02.700Z,8.20
2022-12-01T10:55:29.112Z,7.10
2022-12-01T10:58:34.399Z,7.97
2022-12-01T11:01:36.476Z,8.40
2022-12-01T11:04:43.023Z,8.20
2022-12-01T11:07:47.387Z,9.15
2022-12-01T11:10:50.260Z,8.77
2022-12-01T11:13:52.345Z,8.73
2022-12-01T11:16:54.223Z,8.23
2022-12-01T11:19:56.606Z,9.38
2022-12-01T11:23:24.296Z,8.50
2022-12-01T11:26:33.375Z,8.73
2022-12-01T11:32:39.986Z,8.80
2022-12-01T11:35:47.971Z,8.27
2022-12-01T11:38:50.761Z,8.68
2022-12-01T11:41:59.494Z,9.52
2022-12-01T11:45:13.393Z,8.82
2022-12-01T11:48:25.920Z,9.10
2022-12-01T12:03:36.126Z,8.38
2022-12-01T12:07:05.729Z,9.52
2022-12-01T12:10:39.286Z,9.52
2022-12-01T12:14:10.435Z,10.02
2022-12-01T12:17:44.136Z,8.35
2022-12-01T12:21:01.497Z,8.70
2022-12-01T12:24:41.664Z,8.85
2022-12-01T12:27:43.460Z,8.52
2022-12-01T12:31:11.238Z,10.60
2022-12-01T12:34:19.271Z,9.30
2022-12-01T12:37:58.824Z,8.57
2022-12-01T12:41:45.080Z,9.90
2022-12-01T12:44:51.484Z,8.90
2022-12-01T12:48:20.740Z,9.48
2022-12-01T12:51:34.834Z,8.75
2022-12-01T12:55:13.297Z,9.43
2022-12-01T12:58:18.603Z,8.98
2022-12-01T13:01:46.317Z,8.63
2022-12-01T13:05:01.133Z,8.15
2022-12-01T13:08:10.843Z,9.95
2022-12-01T13:11:27.507Z,9.52
2022-12-01T13:15:00.876Z,8.88
2022-12-01T13:18:19.953Z,8.73
2022-12-01T13:21:22.918Z,9.88
2022-12-01T13:27:34.115Z,8.65
2022-12-01T13:30:36.013Z,9.43
2022-12-01T13:33:42.504Z,8.63
2022-12-01T13:36:49.786Z,8.25
2022-12-01T13:39:54.516Z,9.00
2022-12-01T13:43:13.684Z,8.68
2022-12-01T13:46:49.519Z,8.43
2022-12-01T13:49:52.928Z,9.05
2022-12-01T13:53:10.820Z,7.80
2022-12-01T13:56:15.683Z,9.52
2022-12-01T13:59:39.441Z,9.27
2022-12-01T14:02:41.494Z,8.23
2022-12-01T14:05:50.979Z,8.75
2022-12-01T14:09:04.478Z,8.15
2022-12-01T14:12:22.076Z,8.55
2022-12-01T14:15:30.129Z,9.20
2022-12-01T14:18:34.901Z,8.77
2022-12-01T14:21:43.106Z,7.93
2022-12-01T14:24:52.788Z,8.38
2022-12-01T14:27:57.856Z,8.43
2022-12-01T14:31:03.768Z,7.13
2022-12-01T14:34:17.326Z,8.35
2022-12-01T14:37:24.799Z,8.23
2022-12-01T14:40:29.863Z,8.18
2022-12-01T14:43:31.967Z,7.68
2022-12-01T14:46:48.839Z,8.70
2022-12-01T14:50:01.821Z,7.57
2022-12-01T14:53:11.227Z,8.85
2022-12-01T14:56:17.152Z,8.95
2022-12-01T14:59:24.166Z,9.13
2022-12-01T15:02:27.063Z,9.52
2022-12-01T15:12:01.572Z,7.95
2022-12-01T15:15:23.693Z,8.65
2022-12-01T15:18:36.765Z,9.85
2022-12-01T15:21:38.687Z,10.75
2022-12-01T15:24:41.572Z,11.13
2022-12-01T15:27:43.619Z,10.48
2022-12-01T15:30:52.914Z,9.38
2022-12-01T15:33:56.107Z,8.75
2022-12-01T15:40:54.195Z,8.80
2022-12-01T15:43:39.698Z,9.88
2022-12-01T15:46:41.641Z,10.35
2022-12-01T15:49:50.357Z,9.10
2022-12-01T15:52:52.645Z,9.75
2022-12-01T15:55:59.020Z,10.25
2022-12-01T15:59:21.288Z,8.85
2022-12-01T16:02:31.189Z,9.07
2022-12-01T16:05:35.874Z,9.73
2022-12-01T16:08:38.023Z,8.90
2022-12-01T16:11:40.055Z,8.65
2022-12-01T16:14:55.896Z,9.48
2022-12-01T16:17:59.040Z,8.57
2022-12-01T16:21:05.490Z,10.02
2022-12-01T16:24:13.197Z,11.18
2022-12-01T16:27:30.075Z,10.80
2022-12-01T16:30:39.729Z,9.68
2022-12-01T16:33:41.839Z,8.60
2022-12-01T16:36:43.842Z,8.13
2022-12-01T16:39:46.028Z,8.95
2022-12-01T16:42:48.089Z,9.05
2022-12-01T16:45:51.408Z,9.57
2022-12-01T16:48:53.295Z,8.98
2022-12-01T16:51:56.903Z,8.70
2022-12-01T16:54:59.356Z,8.63
2022-12-01T16:58:01.347Z,9.88
2022-12-01T17:01:05.474Z,9.98
2022-12-01T17:04:07.968Z,9.13
2022-12-01T17:07:09.880Z,9.18
2022-12-01T17:10:12.226Z,9.52
2022-12-01T17:13:14.440Z,8.98
2022-12-01T17:16:18.763Z,9.73
2022-12-01T17:19:20.977Z,10.93
2022-12-01T17:22:23.048Z,10.55
2022-12-01T17:25:27.243Z,9.68
2022-12-01T17:28:29.260Z,9.43
2022-12-01T17:31:31.285Z,10.15
2022-12-01T17:34:33.276Z,10.02
2022-12-01T17:37:35.314Z,10.68
2022-12-01T17:40:37.200Z,10.75
2022-12-01T17:43:39.727Z,10.20
2022-12-01T17:46:41.890Z,9.55
2022-12-01T17:49:43.819Z,10.57
2022-12-01T17:52:46.419Z,9.95
2022-12-01T17:55:48.285Z,9.80
2022-12-01T17:58:50.265Z,11.48
2022-12-01T18:01:52.214Z,9.45
2022-12-01T18:04:54.587Z,10.85
2022-12-01T18:07:56.650Z,11.48
2022-12-01T18:11:04.176Z,10.73
2022-12-01T18:14:06.051Z,10.85
2022-12-01T18:17:12.497Z,10.05
2022-12-01T18:20:15.389Z,11.45
2022-12-01T18:23:17.265Z,10.50
2022-12-01T18:26:20.327Z,12.30
2022-12-01T18:29:22.284Z,10.55
2022-12-01T18:32:24.149Z,11.23
2022-12-01T18:35:31.597Z,11.00
2022-12-01T18:38:34.126Z,10.70
2022-12-01T18:41:37.183Z,14.10
2022-12-01T18:44:39.084Z,12.07
2022-12-01T18:47:40.961Z,11.82
2022-12-01T18:50:42.811Z,12.63
2022-12-01T18:53:47.543Z,14.10
2022-12-01T18:56:54.294Z,12.52
2022-12-01T18:59:56.259Z,12.10
2022-12-01T19:02:58.471Z,13.07
2022-12-01T19:06:06.075Z,11.57
2022-12-01T19:09:10.853Z,11.95
2022-12-01T19:12:12.895Z,12.70
2022-12-01T19:15:14.791Z,13.20
2022-12-01T19:18:17.049Z,13.05
2022-12-01T19:21:20.469Z,12.93
2022-12-01T19:24:22.566Z,12.48
2022-12-01T19:27:24.959Z,13.90
2022-12-01T19:30:26.921Z,13.70
2022-12-01T19:33:28.884Z,12.15
2022-12-01T19:36:31.017Z,12.00
2022-12-01T19:39:33.039Z,13.15
2022-12-01T19:42:34.956Z,12.90
2022-12-01T19:45:38.360Z,12.85
2022-12-01T19:48:40.864Z,12.52
2022-12-01T19:51:42.887Z,13.25
2022-12-01T19:54:44.783Z,13.90
2022-12-01T19:57:50.846Z,13.68
2022-12-01T20:00:52.779Z,12.05
2022-12-01T20:03:55.350Z,13.90
2022-12-01T20:06:57.260Z,13.57
2022-12-01T20:09:59.151Z,12.43
2022-12-01T20:13:01.171Z,13.90
2022-12-01T20:16:12.060Z,13.13
2022-12-01T20:19:14.030Z,13.77
2022-12-01T20:22:18.421Z,13.60
2022-12-01T20:25:20.461Z,12.23
2022-12-01T20:28:22.404Z,13.85
2022-12-01T20:31:27.226Z,13.70
2022-12-01T20:34:34.573Z,13.00
2022-12-01T20:37:36.511Z,12.68
2022-12-01T20:40:38.509Z,12.23
2022-12-01T20:43:40.524Z,14.23
2022-12-01T20:46:43.126Z,12.13
2022-12-01T20:49:45.523Z,12.85
2022-12-01T20:52:47.342Z,13.10
2022-12-01T20:55:51.739Z,13.95
2022-12-01T20:58:53.616Z,12.15
2022-12-01T21:01:55.721Z,13.23
2022-12-01T21:04:59.159Z,14.50
2022-12-01T21:08:02.350Z,12.38
2022-12-01T21:14:24.341Z,14.07
2022-12-01T21:17:34.806Z,14.05
2022-12-01T21:20:39.814Z,15.40
2022-12-01T21:23:42.068Z,15.68
2022-12-01T21:27:02.182Z,13.65
2022-12-01T21:30:14.660Z,13.52
2022-12-01T21:33:22.205Z,13.38
2022-12-01T21:36:28.807Z,13.70
2022-12-01T21:39:30.791Z,13.70
2022-12-01T21:42:32.797Z,15.48
2022-12-01T21:45:34.704Z,16.10
2022-12-01T21:48:37.334Z,13.00
2022-12-01T21:51:39.264Z,14.10
2022-12-01T21:54:41.267Z,13.98
2022-12-01T21:57:53.974Z,13.35
2022-12-01T22:00:59.545Z,14.77
2022-12-01T22:04:10.903Z,14.07
2022-12-01T22:07:15.182Z,13.73
2022-12-01T22:10:54.498Z,16.08
2022-12-01T22:14:08.738Z,14.73
2022-12-01T22:17:18.962Z,15.05
2022-12-01T22:20:22.596Z,14.10
2022-12-01T22:23:32.397Z,15.23
2022-12-01T22:26:39.868Z,12.93
2022-12-01T22:29:47.168Z,15.32
2022-12-01T22:33:02.417Z,15.65
2022-12-01T22:36:23.045Z,14.77
2022-12-01T22:39:33.889Z,16.13
2022-12-01T22:42:35.987Z,14.82
2022-12-01T22:45:38.738Z,13.57
2022-12-01T22:49:05.506Z,14.48
2022-12-01T22:52:18.752Z,15.30
2022-12-01T22:55:20.731Z,15.68
2022-12-01T22:58:30.299Z,14.40
2022-12-01T23:01:34.039Z,15.48
2022-12-01T23:04:41.428Z,14.23
2022-12-01T23:07:43.992Z,16.33
2022-12-01T23:10:45.978Z,14.65
2022-12-01T23:13:47.893Z,14.80
2022-12-01T23:16:56.576Z,13.65
2022-12-01T23:20:08.343Z,16.02
2022-12-01T23:23:32.877Z,16.05
2022-12-01T23:26:34.681Z,15.50
2022-12-01T23:29:37.148Z,14.95
2022-12-01T23:32:39.260Z,15.32
2022-12-01T23:36:01.355Z,15.45
2022-12-01T23:39:10.722Z,15.93
2022-12-01T23:42:13.053Z,16.20
2022-12-01T23:45:21.487Z,15.05
2022-12-01T23:48:27.299Z,15.05
2022-12-01T23:51:32.744Z,15.02
2022-12-01T23:54:37.813Z,16.08
2022-12-01T23:57:39.726Z,14.40
